createdAt,value
2023-10-10T00:00:26.261Z,15.54
2023-10-10T00:05:30.484Z,15.46
2023-10-10T00:10:34.602Z,15.40
2023-10-10T00:15:38.766Z,15.40
2023-10-10T00:20:42.920Z,15.42
2023-10-10T00:25:47.096Z,15.43
2023-10-10T00:30:51.317Z,15.44
2023-10-10T00:35:55.377Z,15.44
2023-10-10T00:40:59.607Z,15.45
2023-10-10T00:46:03.732Z,15.44
2023-10-10T00:51:07.891Z,15.38
2023-10-10T00:56:12.128Z,15.34
2023-10-10T01:01:16.343Z,15.29
2023-10-10T01:06:20.363Z,15.22
2023-10-10T01:11:24.635Z,15.16
2023-10-10T01:16:28.816Z,15.14
2023-10-10T01:21:32.879Z,15.16
2023-10-10T01:26:36.971Z,15.14
2023-10-10T01:31:41.164Z,15.12
2023-10-10T01:36:45.317Z,15.14
2023-10-10T01:41:49.495Z,15.17
2023-10-10T01:46:53.690Z,15.16
2023-10-10T01:51:57.813Z,15.21
2023-10-10T01:57:01.944Z,15.23
2023-10-10T02:02:06.217Z,15.26
2023-10-10T02:07:10.277Z,15.27
2023-10-10T02:12:14.446Z,15.29
2023-10-10T02:17:18.596Z,15.33
2023-10-10T02:22:22.777Z,15.35
2023-10-10T02:27:26.909Z,15.35
2023-10-10T02:32:31.179Z,15.37
2023-10-10T02:37:35.255Z,15.37
2023-10-10T02:42:39.409Z,15.39
2023-10-10T02:52:47.750Z,15.40
2023-10-10T02:57:51.865Z,15.37
2023-10-10T03:02:54.313Z,15.35
2023-10-10T03:07:58.350Z,15.34
2023-10-10T03:13:02.498Z,15.34
2023-10-10T03:18:06.707Z,15.31
2023-10-10T03:23:10.911Z,15.26
2023-10-10T03:28:14.942Z,15.19
2023-10-10T03:33:19.142Z,15.15
2023-10-10T03:38:23.278Z,15.20
2023-10-10T03:43:27.450Z,15.26
2023-10-10T03:48:31.598Z,15.35
2023-10-10T03:53:35.835Z,15.37
2023-10-10T03:58:39.898Z,15.39
2023-10-10T04:03:44.094Z,15.33
2023-10-10T04:08:48.219Z,15.29
2023-10-10T04:13:52.408Z,15.19
2023-10-10T04:18:56.524Z,15.08
2023-10-10T04:24:00.715Z,14.96
2023-10-10T04:29:04.894Z,14.77
2023-10-10T04:34:09.005Z,14.60
2023-10-10T04:39:13.172Z,14.48
2023-10-10T04:44:17.609Z,14.45
2023-10-10T04:49:21.509Z,14.38
2023-10-10T04:54:25.709Z,14.20
2023-10-10T04:59:29.871Z,14.15
2023-10-10T05:04:33.968Z,14.02
2023-10-10T05:09:38.165Z,13.91
2023-10-10T05:14:42.400Z,13.80
2023-10-10T05:19:46.510Z,13.75
2023-10-10T05:24:50.611Z,13.69
2023-10-10T05:29:54.780Z,13.68
2023-10-10T05:35:00.196Z,13.66
2023-10-10T05:40:03.104Z,13.59
2023-10-10T05:45:07.257Z,13.55
2023-10-10T05:50:11.604Z,13.50
2023-10-10T05:55:15.595Z,13.54
2023-10-10T06:00:19.738Z,13.45
2023-10-10T06:05:23.944Z,13.38
2023-10-10T06:10:28.120Z,13.34
2023-10-10T06:15:32.236Z,13.38
2023-10-10T06:20:36.460Z,13.44
2023-10-10T06:25:40.545Z,13.54
2023-10-10T06:30:44.743Z,13.64
2023-10-10T06:35:48.863Z,13.76
2023-10-10T06:40:53.088Z,13.85
2023-10-10T06:45:57.258Z,13.88
2023-10-10T06:51:01.393Z,13.99
2023-10-10T06:56:05.543Z,14.04
2023-10-10T07:01:09.787Z,14.11
2023-10-10T07:06:13.828Z,14.20
2023-10-10T07:11:18.038Z,14.29
2023-10-10T07:16:22.179Z,14.37
2023-10-10T07:21:26.342Z,14.44
2023-10-10T07:26:30.518Z,14.55
2023-10-10T07:31:34.691Z,14.62
2023-10-10T07:36:38.815Z,14.68
2023-10-10T07:41:43.007Z,14.81
2023-10-10T07:46:47.148Z,14.96
2023-10-10T07:51:51.430Z,15.23
2023-10-10T07:56:55.445Z,15.45
2023-10-10T08:01:59.595Z,15.74
2023-10-10T08:07:03.771Z,15.95
2023-10-10T08:12:07.901Z,16.14
2023-10-10T08:17:12.120Z,16.28
2023-10-10T08:22:16.244Z,16.44
2023-10-10T08:27:20.383Z,16.59
2023-10-10T08:32:22.811Z,16.70
2023-10-10T08:37:26.800Z,16.87
2023-10-10T08:42:30.966Z,17.04
2023-10-10T08:47:35.287Z,17.27
2023-10-10T08:52:39.271Z,17.39
2023-10-10T08:57:43.566Z,17.52
2023-10-10T09:02:47.689Z,17.65
2023-10-10T09:07:51.801Z,17.78
2023-10-10T09:12:55.934Z,17.99
2023-10-10T09:18:00.205Z,18.24
2023-10-10T09:23:04.246Z,18.38
2023-10-10T09:28:08.443Z,18.58
2023-10-10T09:33:12.727Z,18.72
2023-10-10T09:38:16.735Z,18.84
2023-10-10T09:43:20.938Z,18.84
2023-10-10T09:48:25.120Z,18.90
2023-10-10T09:53:29.302Z,18.98
2023-10-10T09:58:33.382Z,19.14
2023-10-10T10:03:37.632Z,19.31
2023-10-10T10:08:44.442Z,19.43
2023-10-10T10:13:45.824Z,19.46
2023-10-10T10:18:50.017Z,19.51
2023-10-10T10:23:54.213Z,19.61
2023-10-10T10:28:58.376Z,19.71
2023-10-10T10:34:02.485Z,19.80
2023-10-10T10:39:06.694Z,19.87
2023-10-10T10:44:10.835Z,19.84
2023-10-10T10:49:15.002Z,19.85
2023-10-10T10:54:19.185Z,19.83
2023-10-10T10:59:23.303Z,19.99
2023-10-10T11:04:27.500Z,20.19
2023-10-10T11:09:31.660Z,20.33
2023-10-10T11:14:35.859Z,20.44
2023-10-10T11:19:39.949Z,20.66
2023-10-10T11:24:44.076Z,20.81
2023-10-10T11:29:48.300Z,20.95
2023-10-10T11:34:52.395Z,21.09
2023-10-10T11:39:56.561Z,21.31
2023-10-10T11:45:00.794Z,21.33
2023-10-10T11:50:04.877Z,21.45
2023-10-10T11:55:09.110Z,21.56
2023-10-10T12:00:26.660Z,21.80
2023-10-10T12:05:17.418Z,21.87
2023-10-10T12:10:21.526Z,22.03
2023-10-10T12:15:25.655Z,22.11
2023-10-10T12:20:29.857Z,22.25
2023-10-10T12:25:33.972Z,22.23
2023-10-10T12:30:38.175Z,22.29
2023-10-10T12:35:42.349Z,22.30
2023-10-10T12:40:46.500Z,22.34
2023-10-10T12:45:50.660Z,22.46
2023-10-10T12:50:54.882Z,22.61
2023-10-10T12:55:58.935Z,22.79
2023-10-10T13:01:03.156Z,22.79
2023-10-10T13:06:07.281Z,22.77
2023-10-10T13:11:11.448Z,22.82
2023-10-10T13:16:15.664Z,22.83
2023-10-10T13:21:19.765Z,22.87
2023-10-10T13:26:23.947Z,22.96
2023-10-10T13:31:28.052Z,23.02
2023-10-10T13:36:32.212Z,22.95
2023-10-10T13:41:36.404Z,23.08
2023-10-10T13:46:40.616Z,23.09
2023-10-10T13:51:46.742Z,22.96
2023-10-10T13:56:48.922Z,22.71
2023-10-10T14:01:51.210Z,22.87
2023-10-10T14:06:55.276Z,23.01
2023-10-10T14:11:59.487Z,23.11
2023-10-10T14:17:03.612Z,23.11
2023-10-10T14:22:07.784Z,23.13
2023-10-10T14:27:11.938Z,23.18
2023-10-10T14:32:26.683Z,23.27
2023-10-10T14:37:35.939Z,23.20
2023-10-10T14:42:22.513Z,23.11
2023-10-10T14:47:26.809Z,23.09
2023-10-10T14:52:30.835Z,23.04
2023-10-10T14:57:35.012Z,22.91
2023-10-10T15:02:39.162Z,22.83
2023-10-10T15:07:43.331Z,22.69
2023-10-10T15:12:47.465Z,22.63
2023-10-10T15:17:51.738Z,22.58
2023-10-10T15:22:55.786Z,22.61
2023-10-10T15:27:59.936Z,22.62
2023-10-10T15:33:04.205Z,22.64
2023-10-10T15:38:08.246Z,22.56
2023-10-10T15:43:29.975Z,22.50
2023-10-10T15:48:16.681Z,22.35
2023-10-10T15:53:20.799Z,22.24
2023-10-10T15:58:24.928Z,22.40
2023-10-10T16:03:29.140Z,22.20
2023-10-10T16:08:33.237Z,22.02
2023-10-10T16:13:37.374Z,21.73
2023-10-10T16:18:41.635Z,21.50
2023-10-10T16:23:45.882Z,21.40
2023-10-10T16:28:49.862Z,21.19
2023-10-10T16:33:54.009Z,20.88
2023-10-10T16:38:58.194Z,20.55
2023-10-10T16:44:02.495Z,20.31
2023-10-10T16:49:06.470Z,19.97
2023-10-10T16:54:10.645Z,19.73
2023-10-10T16:59:16.299Z,19.57
2023-10-10T17:04:20.510Z,19.34
2023-10-10T17:09:23.132Z,19.15
2023-10-10T17:14:27.322Z,18.93
2023-10-10T17:19:31.436Z,18.92
2023-10-10T17:24:35.610Z,18.87
2023-10-10T17:29:39.781Z,18.69
2023-10-10T17:34:43.944Z,18.78
2023-10-10T17:39:48.118Z,18.83
2023-10-10T17:44:52.325Z,18.75
2023-10-10T17:49:56.412Z,18.71
2023-10-10T17:55:00.526Z,18.53
2023-10-10T18:00:04.753Z,18.45
2023-10-10T18:05:08.891Z,18.38
2023-10-10T18:10:13.042Z,18.44
2023-10-10T18:15:17.223Z,18.61
2023-10-10T18:20:21.335Z,18.64
2023-10-10T18:25:25.525Z,18.64
2023-10-10T18:30:29.691Z,18.63
2023-10-10T18:35:33.847Z,18.65
2023-10-10T18:40:37.991Z,18.68
2023-10-10T18:45:42.147Z,18.61
2023-10-10T18:50:46.350Z,18.54
2023-10-10T18:55:50.480Z,18.62
2023-10-10T19:00:54.710Z,18.61
2023-10-10T19:05:58.909Z,18.53
2023-10-10T19:11:02.981Z,18.57
2023-10-10T19:16:07.096Z,18.53
2023-10-10T19:21:11.378Z,18.47
2023-10-10T19:26:15.431Z,18.43
2023-10-10T19:31:19.671Z,18.51
2023-10-10T19:36:23.768Z,18.33
2023-10-10T19:41:27.937Z,18.32
2023-10-10T19:46:32.122Z,18.21
2023-10-10T19:51:36.245Z,18.06
2023-10-10T19:56:40.411Z,17.87
2023-10-10T20:01:42.776Z,17.77
2023-10-10T20:06:46.791Z,17.74
2023-10-10T20:11:51.013Z,17.70
2023-10-10T20:16:55.235Z,17.58
2023-10-10T20:21:59.309Z,17.51
2023-10-10T20:27:03.474Z,17.39
2023-10-10T20:37:11.770Z,17.56
2023-10-10T20:42:15.934Z,17.65
2023-10-10T20:47:21.587Z,17.67
2023-10-10T20:52:24.284Z,17.74
2023-10-10T20:57:28.409Z,17.86
2023-10-10T21:02:32.662Z,17.94
2023-10-10T21:07:37.412Z,18.03
2023-10-10T21:12:40.860Z,18.04
2023-10-10T21:17:45.116Z,18.00
2023-10-10T21:22:49.207Z,17.90
2023-10-10T21:27:53.359Z,17.63
2023-10-10T21:32:57.637Z,17.43
2023-10-10T21:38:01.710Z,17.58
2023-10-10T21:43:05.843Z,17.51
2023-10-10T21:48:10.169Z,17.35
2023-10-10T21:53:14.154Z,17.32
2023-10-10T21:58:18.311Z,17.56
2023-10-10T22:03:22.567Z,17.45
2023-10-10T22:08:26.656Z,17.54
2023-10-10T22:13:30.792Z,17.91
2023-10-10T22:18:35.170Z,17.97
2023-10-10T22:23:39.198Z,18.24
2023-10-10T22:28:43.269Z,18.25
2023-10-10T22:33:47.501Z,18.28
2023-10-10T22:38:51.626Z,18.25
2023-10-10T22:43:55.781Z,18.20
2023-10-10T22:48:59.920Z,18.25
2023-10-10T22:54:04.163Z,18.28
2023-10-10T22:59:08.214Z,18.25
2023-10-10T23:04:12.547Z,18.21
2023-10-10T23:09:16.726Z,18.15
2023-10-10T23:14:20.695Z,18.19
2023-10-10T23:19:24.908Z,18.19
2023-10-10T23:24:29.055Z,18.22
2023-10-10T23:29:33.202Z,18.45
2023-10-10T23:34:37.392Z,18.32
2023-10-10T23:39:41.524Z,18.33
2023-10-10T23:44:45.698Z,18.35
2023-10-10T23:49:49.834Z,18.37
2023-10-10T23:54:54.003Z,18.36
2023-10-10T23:59:58.184Z,18.34
